Time;durP1;ratioP1;P1;durP2;ratioP2;P2;SDS_P1;SDS_P2;PMS_P1;PMS_P2;Temp;Humidity;BMP_temperature;BMP_pressure;BME280_temperature;BME280_humidity;BME280_pressure;Samples;Min_cycle;Max_cycle;Signal;HPM_P1;HPM_P2
2024/01/31 00:04:01;;;;;;;14.90;10.10;;;;;;;0.45;83.55;100757.03;436980;1253;140434;-68
2024/01/31 00:14:08;;;;;;;14.80;9.70;;;;;;;0.44;83.85;100756.87;435592;1254;139544;-65
2024/01/31 00:24:14;;;;;;;15.90;9.80;;;;;;;0.43;84.24;100763.42;436140;1255;138676;-66
2024/01/31 00:34:20;;;;;;;13.70;9.50;;;;;;;0.41;84.45;100765.51;435938;1250;139484;-66
2024/01/31 00:44:27;;;;;;;21.60;11.10;;;;;;;0.37;84.78;100761.20;435375;1254;138931;-68
2024/01/31 00:54:33;;;;;;;16.60;11.40;;;;;;;0.36;85.12;100755.87;434871;1254;139136;-67
2024/01/31 01:04:39;;;;;;;15.10;10.70;;;;;;;0.35;85.25;100758.10;435335;1256;138888;-68
2024/01/31 01:14:45;;;;;;;12.70;9.70;;;;;;;0.33;85.49;100759.14;435048;1254;139099;-68
2024/01/31 01:24:52;;;;;;;13.40;8.90;;;;;;;0.28;85.88;100748.99;435456;1253;138725;-67
2024/01/31 01:34:58;;;;;;;15.30;10.80;;;;;;;0.23;86.15;100746.25;435864;1253;139793;-67
2024/01/31 01:45:06;;;;;;;14.10;10.60;;;;;;;0.22;86.59;100742.45;435298;1254;138922;-67
2024/01/31 01:55:12;;;;;;;14.90;10.40;;;;;;;0.26;87.19;100737.29;435947;1254;139635;-67
2024/01/31 02:05:19;;;;;;;13.90;11.00;;;;;;;0.31;87.46;100734.17;436131;1254;139321;-66
2024/01/31 02:15:25;;;;;;;15.60;9.70;;;;;;;0.38;87.81;100730.20;435406;1251;139761;-67
2024/01/31 02:25:31;;;;;;;13.80;10.20;;;;;;;0.45;87.87;100729.99;434926;1256;139198;-67
2024/01/31 02:35:37;;;;;;;20.50;12.40;;;;;;;0.48;88.05;100722.58;434951;1255;139833;-65
2024/01/31 02:45:43;;;;;;;14.30;10.10;;;;;;;0.48;88.13;100724.30;435015;1254;139498;-67
2024/01/31 02:55:49;;;;;;;15.60;11.10;;;;;;;0.52;88.49;100724.79;435924;1253;139405;-68
2024/01/31 03:05:55;;;;;;;13.80;9.60;;;;;;;0.53;88.58;100723.07;435169;1251;139030;-67
2024/01/31 03:16:01;;;;;;;14.30;10.40;;;;;;;0.55;88.68;100722.02;435338;1253;139205;-67
2024/01/31 03:26:07;;;;;;;14.50;10.30;;;;;;;0.53;88.80;100717.38;435730;1254;139276;-67
2024/01/31 03:36:14;;;;;;;15.70;12.40;;;;;;;0.61;89.27;100706.65;434787;1253;139602;-67
2024/01/31 03:46:20;;;;;;;14.40;10.40;;;;;;;0.79;89.54;100711.23;435032;1254;138792;-66
2024/01/31 03:56:25;;;;;;;;;;;;;;;0.95;89.33;100724.58;435929;1256;138793;-66
2024/01/31 04:06:31;;;;;;;13.50;10.30;;;;;;;1.05;89.48;100732.10;434895;1252;125733;-68
2024/01/31 04:16:37;;;;;;;17.20;11.50;;;;;;;1.13;89.53;100730.84;435057;1254;139655;-68
2024/01/31 04:26:45;;;;;;;19.00;11.30;;;;;;;1.24;89.62;100733.17;435216;1256;139658;-68
2024/01/31 04:36:51;;;;;;;13.70;11.40;;;;;;;1.33;89.55;100731.23;435780;1254;140173;-67
2024/01/31 04:46:57;;;;;;;14.00;11.00;;;;;;;1.42;89.59;100726.31;435194;1251;139249;-66
2024/01/31 04:57:03;;;;;;;12.60;10.00;;;;;;;1.42;89.51;100724.60;435616;1254;138949;-67
2024/01/31 05:07:09;;;;;;;13.60;10.80;;;;;;;1.45;89.91;100730.61;435635;1254;139742;-68
2024/01/31 05:17:16;;;;;;;15.20;12.40;;;;;;;1.48;90.05;100731.27;435161;1253;139469;-67
2024/01/31 05:27:22;;;;;;;17.70;11.70;;;;;;;1.55;90.17;100742.27;435356;1254;139359;-66
2024/01/31 05:37:28;;;;;;;12.90;10.40;;;;;;;1.58;90.36;100745.19;434794;1254;139406;-68
2024/01/31 05:47:34;;;;;;;17.00;12.30;;;;;;;1.59;90.48;100750.88;434839;1251;139345;-67
2024/01/31 05:57:40;;;;;;;16.10;13.30;;;;;;;1.63;90.58;100750.31;435874;1256;139040;-68
2024/01/31 06:07:46;;;;;;;16.50;12.00;;;;;;;1.69;90.66;100748.88;436157;1254;139200;-68
2024/01/31 06:17:52;;;;;;;16.50;12.90;;;;;;;1.74;90.71;100747.80;435598;1254;139713;-68
2024/01/31 06:27:58;;;;;;;18.40;12.00;;;;;;;1.78;90.90;100749.32;434958;1253;139436;-68
2024/01/31 06:38:04;;;;;;;19.90;13.20;;;;;;;1.82;91.30;100756.01;435590;1254;139555;-69
2024/01/31 06:48:10;;;;;;;21.90;14.60;;;;;;;1.88;91.42;100763.91;435042;1254;139506;-67
2024/01/31 06:58:17;;;;;;;24.40;16.00;;;;;;;1.95;91.27;100770.05;434822;1256;139817;-67
2024/01/31 07:08:23;;;;;;;25.30;15.00;;;;;;;2.03;91.73;100759.79;434919;1254;140286;-67
2024/01/31 07:18:29;;;;;;;19.80;15.90;;;;;;;2.15;91.80;100771.77;434855;1255;139357;-68
2024/01/31 07:28:37;;;;;;;19.10;14.10;;;;;;;2.25;92.13;100780.65;435709;1254;139719;-68
2024/01/31 07:38:45;;;;;;;21.00;14.80;;;;;;;2.34;92.08;100786.61;435650;1254;139301;-70
2024/01/31 07:48:51;;;;;;;21.20;14.40;;;;;;;2.47;92.28;100783.02;435564;1254;142240;-68
2024/01/31 07:58:57;;;;;;;21.10;13.50;;;;;;;2.59;92.10;100787.20;436131;1251;139836;-72
2024/01/31 08:09:04;;;;;;;22.30;16.80;;;;;;;2.68;92.25;100796.25;439625;1254;139043;-70
2024/01/31 08:19:26;;;;;;;23.00;15.80;;;;;;;2.76;92.51;100796.84;436422;1256;140173;-70
2024/01/31 08:29:32;;;;;;;24.50;15.40;;;;;;;2.94;93.04;100796.96;438268;1254;140020;-66
2024/01/31 08:39:39;;;;;;;21.30;14.80;;;;;;;3.17;93.07;100804.27;435862;1256;139015;-67
2024/01/31 08:49:45;;;;;;;20.50;14.80;;;;;;;3.44;93.00;100808.40;437439;1256;408000;-68
2024/01/31 08:59:51;;;;;;;22.30;15.70;;;;;;;3.61;92.50;100810.02;439251;1253;139503;-72
2024/01/31 09:09:58;;;;;;;17.80;13.00;;;;;;;3.69;92.71;100816.67;439718;1254;139195;-72
2024/01/31 09:20:04;;;;;;;25.40;16.00;;;;;;;3.72;92.83;100812.46;436217;1256;139190;-73
2024/01/31 09:30:11;;;;;;;21.70;16.10;;;;;;;3.80;93.05;100806.45;439834;1254;139164;-71
2024/01/31 09:40:19;;;;;;;20.30;14.90;;;;;;;4.06;93.21;100808.78;439591;1255;139619;-68
2024/01/31 09:50:25;;;;;;;22.40;16.10;;;;;;;4.22;92.98;100813.53;437366;1254;138923;-61
2024/01/31 10:00:32;;;;;;;20.50;16.60;;;;;;;4.21;92.41;100813.21;436405;1256;139256;-63
2024/01/31 10:10:38;;;;;;;25.60;18.70;;;;;;;4.16;92.59;100808.10;435045;1254;141224;-65
2024/01/31 10:20:50;;;;;;;20.70;14.90;;;;;;;4.19;93.23;100795.05;434918;1254;139840;-64
2024/01/31 10:30:56;;;;;;;19.90;15.80;;;;;;;4.32;93.44;100784.93;434711;1256;139397;-64
2024/01/31 10:41:03;;;;;;;23.60;15.00;;;;;;;4.55;93.93;100775.81;435169;1254;139825;-65
2024/01/31 10:51:12;;;;;;;23.10;15.80;;;;;;;4.84;94.17;100759.42;434962;1256;139838;-61
2024/01/31 11:01:21;;;;;;;18.60;14.30;;;;;;;5.25;94.18;100744.48;435156;1256;139230;-62
2024/01/31 11:11:27;;;;;;;16.80;13.40;;;;;;;5.59;93.69;100739.31;434872;1254;140239;-60
2024/01/31 11:21:39;;;;;;;17.20;13.90;;;;;;;6.00;93.11;100738.66;434856;1254;139424;-60
2024/01/31 11:31:45;;;;;;;25.40;15.40;;;;;;;6.47;92.93;100724.86;434729;1255;139109;-61
2024/01/31 11:41:52;;;;;;;18.30;13.50;;;;;;;7.12;92.03;100713.33;434775;1254;139858;-64
2024/01/31 11:51:58;;;;;;;19.80;10.90;;;;;;;7.44;89.78;100702.03;436744;1255;139201;-64
2024/01/31 12:02:05;;;;;;;15.70;12.70;;;;;;;7.25;88.49;100702.67;435509;1256;139290;-65
2024/01/31 12:12:13;;;;;;;13.40;10.80;;;;;;;7.08;89.04;100703.55;435876;1256;139628;-62
2024/01/31 12:22:19;;;;;;;17.40;10.70;;;;;;;7.15;89.09;100710.31;436258;1252;140002;-66
2024/01/31 12:32:26;;;;;;;15.50;12.40;;;;;;;6.95;88.92;100711.25;436183;1256;139456;-64
2024/01/31 12:42:32;;;;;;;14.30;12.50;;;;;;;6.76;89.48;100706.97;435864;1254;140117;-63
2024/01/31 12:52:38;;;;;;;16.30;10.90;;;;;;;6.84;89.94;100700.80;435192;1256;139440;-68
2024/01/31 13:02:44;;;;;;;8.80;6.60;;;;;;;6.87;89.85;100701.24;435114;1256;140078;-64
2024/01/31 13:12:51;;;;;;;8.60;6.40;;;;;;;6.78;89.79;100699.07;435246;1255;139755;-67
2024/01/31 13:22:57;;;;;;;6.30;4.80;;;;;;;6.80;90.01;100701.45;437059;1255;139116;-61
2024/01/31 13:33:04;;;;;;;7.20;5.50;;;;;;;6.80;89.61;100689.77;435632;1251;139210;-63
2024/01/31 13:43:10;;;;;;;6.20;5.60;;;;;;;6.65;89.42;100685.36;435425;1256;140458;-66
2024/01/31 13:53:16;;;;;;;8.90;6.10;;;;;;;6.50;89.42;100678.34;435337;1257;139694;-59
2024/01/31 14:03:22;;;;;;;12.20;7.00;;;;;;;6.31;89.38;100672.27;435527;1257;140184;-62
2024/01/31 14:13:28;;;;;;;9.30;7.00;;;;;;;6.10;89.79;100655.11;435327;1254;140864;-67
2024/01/31 14:23:34;;;;;;;9.30;7.90;;;;;;;6.02;90.39;100646.64;435604;1253;139170;-67
2024/01/31 14:33:49;;;;;;;12.50;7.90;;;;;;;5.96;90.80;100649.40;435209;1257;139003;-64
2024/01/31 14:43:55;;;;;;;10.60;7.70;;;;;;;5.84;91.25;100650.59;438120;1254;139321;-68
2024/01/31 14:54:01;;;;;;;9.90;8.30;;;;;;;5.73;91.50;100642.05;439420;1254;139546;-72
2024/01/31 15:04:07;;;;;;;9.70;7.20;;;;;;;5.52;91.59;100634.23;437100;1257;139143;-64
2024/01/31 15:14:13;;;;;;;8.50;7.70;;;;;;;5.32;92.16;100632.31;435182;1254;139168;-65
2024/01/31 15:24:19;;;;;;;12.10;7.40;;;;;;;5.18;92.76;100628.33;435458;1253;140340;-68
2024/01/31 15:34:26;;;;;;;9.90;7.00;;;;;;;5.08;93.32;100626.67;437758;1256;139041;-72
2024/01/31 15:44:33;;;;;;;9.30;7.50;;;;;;;5.01;93.92;100627.16;437318;1254;139477;-65
2024/01/31 15:54:37;;;;;;;;;;;;;;;4.99;94.44;100634.16;435148;1254;139037;-68
2024/01/31 16:04:43;;;;;;;7.80;6.90;;;;;;;4.96;94.82;100642.38;436251;1254;125933;-65
2024/01/31 16:14:50;;;;;;;9.80;8.60;;;;;;;4.94;95.25;100648.52;436328;1254;139760;-65
2024/01/31 16:24:56;;;;;;;11.20;8.60;;;;;;;4.89;95.72;100648.27;436355;1256;139188;-66
2024/01/31 16:35:03;;;;;;;8.80;8.00;;;;;;;4.86;96.27;100648.00;435429;1257;139151;-64
2024/01/31 16:45:10;;;;;;;13.10;8.50;;;;;;;4.80;96.49;100652.65;435564;1254;139175;-64
2024/01/31 16:55:19;;;;;;;5.80;4.90;;;;;;;4.76;96.27;100655.35;434966;1254;140338;-63
2024/01/31 17:05:27;;;;;;;4.90;4.00;;;;;;;4.65;95.76;100648.13;434753;1256;140198;-57
2024/01/31 17:15:33;;;;;;;4.80;3.90;;;;;;;4.55;95.76;100652.52;434954;1254;139764;-58
2024/01/31 17:25:39;;;;;;;4.80;4.30;;;;;;;4.46;95.88;100638.83;434162;1254;140172;-59
2024/01/31 17:35:45;;;;;;;6.80;4.30;;;;;;;4.29;96.50;100642.30;434786;1256;141526;-58
2024/01/31 17:45:52;;;;;;;7.00;4.00;;;;;;;4.18;97.43;100639.08;434952;1251;140235;-59
2024/01/31 17:55:59;;;;;;;5.40;4.90;;;;;;;4.04;98.22;100629.66;435255;1251;139044;-59
2024/01/31 18:06:06;;;;;;;4.60;4.20;;;;;;;3.95;99.02;100612.50;435320;1255;139759;-58
2024/01/31 18:16:12;;;;;;;6.70;5.20;;;;;;;3.85;99.28;100595.56;435289;1254;141659;-57
2024/01/31 18:26:20;;;;;;;7.30;5.40;;;;;;;3.74;99.48;100584.69;435116;1256;139746;-59
2024/01/31 18:36:26;;;;;;;6.80;4.40;;;;;;;3.63;99.75;100570.19;434756;1254;139146;-59
2024/01/31 18:46:32;;;;;;;5.50;4.30;;;;;;;3.54;100.00;100568.27;434734;1254;138812;-59
2024/01/31 18:56:40;;;;;;;7.00;5.40;;;;;;;3.52;100.00;100560.00;434904;1254;141099;-58
2024/01/31 19:06:46;;;;;;;6.30;4.90;;;;;;;3.50;100.00;100566.61;435181;1254;139845;-58
2024/01/31 19:16:52;;;;;;;18.30;9.10;;;;;;;3.49;100.00;100543.60;434877;1254;139467;-59
2024/01/31 19:26:58;;;;;;;6.70;5.20;;;;;;;3.47;100.00;100531.02;435667;1253;140325;-58
2024/01/31 19:37:04;;;;;;;5.00;3.90;;;;;;;3.46;100.00;100518.23;434816;1255;140530;-58
2024/01/31 19:47:10;;;;;;;8.00;5.90;;;;;;;3.45;100.00;100514.95;435085;1254;139167;-58
2024/01/31 19:57:16;;;;;;;7.10;5.30;;;;;;;3.44;100.00;100506.68;434877;1256;139431;-59
2024/01/31 20:07:22;;;;;;;6.50;4.50;;;;;;;3.42;100.00;100504.45;435325;1254;141175;-58
2024/01/31 20:17:28;;;;;;;7.20;3.70;;;;;;;3.42;99.85;100490.27;435542;1253;141102;-58
2024/01/31 20:27:33;;;;;;;;;;;;;;;3.39;99.02;100475.59;435922;1254;138914;-58
2024/01/31 20:37:39;;;;;;;5.40;4.00;;;;;;;3.35;98.46;100459.76;435370;1254;125672;-58
2024/01/31 20:47:46;;;;;;;3.80;3.40;;;;;;;3.31;97.98;100448.23;434762;1254;139212;-58
2024/01/31 20:57:52;;;;;;;5.90;3.70;;;;;;;3.27;97.77;100440.02;434825;1252;157464;-58
2024/01/31 21:07:58;;;;;;;10.90;6.80;;;;;;;3.20;97.78;100417.15;436291;1251;139652;-58
2024/01/31 21:18:04;;;;;;;10.80;6.70;;;;;;;3.13;97.88;100382.15;435209;1255;141178;-58
2024/01/31 21:28:09;;;;;;;;;;;;;;;3.09;98.69;100366.33;435020;1253;139684;-58
2024/01/31 21:38:15;;;;;;;10.90;6.90;;;;;;;3.01;98.99;100357.31;435141;1255;125566;-58
2024/01/31 21:48:23;;;;;;;9.80;6.40;;;;;;;2.92;99.39;100347.63;434812;1252;139695;-59
2024/01/31 21:58:30;;;;;;;8.00;5.40;;;;;;;2.89;99.38;100343.73;436559;1254;140029;-59
2024/01/31 22:08:36;;;;;;;11.20;6.40;;;;;;;2.84;99.57;100337.60;435224;1256;139033;-57
2024/01/31 22:18:42;;;;;;;15.60;8.70;;;;;;;2.79;99.63;100320.23;434949;1255;139305;-59
2024/01/31 22:28:48;;;;;;;11.10;7.80;;;;;;;2.75;99.66;100295.58;435066;1253;139402;-58
2024/01/31 22:38:55;;;;;;;9.70;7.10;;;;;;;2.73;99.80;100273.48;434883;1254;140688;-59
2024/01/31 22:49:01;;;;;;;9.30;6.60;;;;;;;2.75;99.96;100246.65;434938;1256;138891;-59
2024/01/31 22:59:07;;;;;;;10.40;7.20;;;;;;;2.76;99.96;100229.34;435545;1253;140993;-57
2024/01/31 23:09:13;;;;;;;12.30;9.20;;;;;;;2.75;100.00;100201.52;435999;1253;138978;-58
2024/01/31 23:19:20;;;;;;;14.80;11.10;;;;;;;2.78;100.00;100190.57;435573;1255;140076;-58
2024/01/31 23:29:26;;;;;;;13.70;9.10;;;;;;;2.71;100.00;100181.73;435992;1254;140183;-57
2024/01/31 23:39:32;;;;;;;16.00;14.30;;;;;;;2.32;100.00;100168.70;434993;1255;139218;-58
2024/01/31 23:49:38;;;;;;;15.10;11.20;;;;;;;1.93;100.00;100156.54;434870;1255;139202;-58
2024/01/31 23:59:44;;;;;;;18.40;13.40;;;;;;;1.72;100.00;100142.08;434867;1254;139654;-57
